Time,TemperatureF,DewpointF,PressureIn,WindDirection,WindDirectionDegrees,WindSpeedMPH,WindSpeedGustMPH,Humidity,HourlyPrecipIn,Conditions,Clouds,dailyrainin,SoftwareType,DateUTC
2013-02-11 00:01:00,33.0,32.2,29.28,West,268,1.1,0.0,97,0.00,CLR,,0.48,WeatherDisplay:10.37,2013-02-11 00:01:00,
2013-02-11 00:06:00,33.0,32.2,29.28,East,93,0.0,0.0,97,0.00,CLR,,0.48,WeatherDisplay:10.37,2013-02-11 00:06:00,
2013-02-11 00:11:00,33.0,32.2,29.28,ESE,108,0.0,0.0,97,0.00,RA,,0.00,WeatherDisplay:10.37,2013-02-11 00:11:00,
2013-02-11 00:16:00,33.1,32.3,29.28,ENE,76,2.3,2.3,97,0.00,RA,,0.00,WeatherDisplay:10.37,2013-02-11 00:16:00,
2013-02-11 00:21:00,33.1,32.3,29.29,ESE,105,1.0,1.0,97,0.00,CLR,,0.00,WeatherDisplay:10.37,2013-02-11 00:21:00,
2013-02-11 00:26:00,33.1,32.3,29.28,ESE,113,1.1,1.1,97,0.00,CLR,,0.00,WeatherDisplay:10.37,2013-02-11 00:26:00,
2013-02-11 00:31:00,33.1,32.3,29.29,West,267,2.3,2.3,97,0.00,CLR,,0.00,WeatherDisplay:10.37,2013-02-11 00:31:00,
2013-02-11 00:36:00,33.1,32.3,29.29,ENE,75,1.1,0.0,97,0.00,CLR,,0.00,WeatherDisplay:10.37,2013-02-11 00:36:00,
2013-02-11 00:41:00,33.1,32.3,29.29,ESE,108,2.3,0.0,97,0.00,CLR,,0.00,WeatherDisplay:10.37,2013-02-11 00:41:00,
2013-02-11 00:46:00,33.1,32.6,29.29,SE,136,0.0,0.0,98,0.00,CLR,,0.00,WeatherDisplay:10.37,2013-02-11 00:46:00,
2013-02-11 00:51:00,33.2,32.7,29.29,ENE,74,0.0,0.0,98,0.00,CLR,,0.00,WeatherDisplay:10.37,2013-02-11 00:51:00,
2013-02-11 00:56:00,33.2,32.7,29.29,ENE,65,0.0,0.0,98,0.00,CLR,,0.00,WeatherDisplay:10.37,2013-02-11 00:56:00,
2013-02-11 01:01:00,33.2,32.7,29.29,ESE,115,1.1,1.1,98,0.00,CLR,,0.00,WeatherDisplay:10.37,2013-02-11 01:01:00,
2013-02-11 01:06:00,33.2,32.7,29.30,ESE,116,3.5,3.5,98,0.00,CLR,,0.00,WeatherDisplay:10.37,2013-02-11 01:06:00,
2013-02-11 01:11:00,33.3,32.8,29.30,ENE,61,3.5,3.5,98,0.01,RA,,0.01,WeatherDisplay:10.37,2013-02-11 01:11:00,
2013-02-11 01:16:00,33.3,32.8,29.30,WNW,291,1.1,1.1,98,0.01,RA,,0.01,WeatherDisplay:10.37,2013-02-11 01:16:00,
2013-02-11 01:21:00,33.3,32.8,29.30,SE,139,1.1,1.3,98,0.01,,,0.01,WeatherDisplay:10.37,2013-02-11 01:21:00,
2013-02-11 01:26:00,33.2,32.7,29.30,WNW,285,2.3,2.3,98,0.01,CLR,,0.01,WeatherDisplay:10.37,2013-02-11 01:26:00,
2013-02-11 01:31:00,33.2,32.7,29.30,East,84,2.3,2.3,98,0.01,CLR,,0.01,WeatherDisplay:10.37,2013-02-11 01:31:00,
2013-02-11 01:36:00,33.3,32.8,29.30,ESE,120,2.3,0.0,98,0.01,CLR,,0.01,WeatherDisplay:10.37,2013-02-11 01:36:00,
2013-02-11 01:41:00,33.3,32.8,29.30,ESE,113,2.3,0.0,98,0.02,RA,,0.02,WeatherDisplay:10.37,2013-02-11 01:41:00,
2013-02-11 01:46:00,33.3,32.8,29.30,SE,131,1.1,1.1,98,0.02,RA,,0.02,WeatherDisplay:10.37,2013-02-11 01:46:00,
2013-02-11 01:51:00,33.3,32.8,29.30,SE,127,3.5,3.5,98,0.02,CLR,,0.02,WeatherDisplay:10.37,2013-02-11 01:51:00,
2013-02-11 01:56:00,33.4,32.9,29.30,SSE,151,3.5,3.5,98,0.02,CLR,,0.02,WeatherDisplay:10.37,2013-02-11 01:56:00,
2013-02-11 02:01:00,33.3,32.8,29.31,WNW,293,2.3,2.3,98,0.02,CLR,,0.02,WeatherDisplay:10.37,2013-02-11 02:01:00,
2013-02-11 02:06:00,33.3,32.8,29.31,ESE,116,2.3,0.0,98,0.02,CLR,,0.02,WeatherDisplay:10.37,2013-02-11 02:06:00,
2013-02-11 02:11:00,33.3,32.8,29.31,SE,126,2.3,2.3,98,0.01,CLR,,0.02,WeatherDisplay:10.37,2013-02-11 02:11:00,
2013-02-11 02:16:00,33.3,32.8,29.31,ESE,109,3.5,3.5,98,0.02,RA,,0.02,WeatherDisplay:10.37,2013-02-11 02:16:00,
2013-02-11 02:21:00,33.3,32.8,29.31,ESE,105,2.3,0.0,98,0.02,RA,,0.02,WeatherDisplay:10.37,2013-02-11 02:21:00,
2013-02-11 02:26:00,33.2,32.7,29.31,East,90,2.3,2.3,98,0.02,,,0.02,WeatherDisplay:10.37,2013-02-11 02:26:00,
2013-02-11 02:31:00,33.2,32.7,29.31,ESE,108,2.3,0.0,98,0.02,CLR,,0.02,WeatherDisplay:10.37,2013-02-11 02:31:00,
2013-02-11 02:36:00,33.1,32.6,29.31,ESE,116,0.0,0.0,98,0.02,CLR,,0.02,WeatherDisplay:10.37,2013-02-11 02:36:00,
2013-02-11 02:41:00,33.0,32.5,29.31,SE,134,0.0,0.4,98,0.01,CLR,,0.02,WeatherDisplay:10.37,2013-02-11 02:41:00,
2013-02-11 02:46:00,33.0,32.5,29.31,SSE,163,1.1,0.0,98,0.01,CLR,,0.02,WeatherDisplay:10.37,2013-02-11 02:46:00,
2013-02-11 02:51:00,33.0,32.5,29.31,East,101,2.3,2.3,98,0.01,CLR,,0.02,WeatherDisplay:10.37,2013-02-11 02:51:00,
2013-02-11 02:56:00,33.0,32.5,29.31,West,266,1.1,0.0,98,0.01,CLR,,0.02,WeatherDisplay:10.37,2013-02-11 02:56:00,
2013-02-11 03:01:00,33.0,32.5,29.31,SE,126,2.3,2.3,98,0.01,CLR,,0.02,WeatherDisplay:10.37,2013-02-11 03:01:00,
2013-02-11 03:06:00,33.0,32.5,29.32,West,267,1.1,0.0,98,0.01,CLR,,0.02,WeatherDisplay:10.37,2013-02-11 03:06:00,
2013-02-11 03:11:00,33.0,32.5,29.32,WNW,300,2.3,2.3,98,0.01,CLR,,0.02,WeatherDisplay:10.37,2013-02-11 03:11:00,
2013-02-11 03:16:00,33.0,32.5,29.32,SSE,153,1.1,1.1,98,0.00,CLR,,0.02,WeatherDisplay:10.37,2013-02-11 03:16:00,
2013-02-11 03:21:00,33.0,32.5,29.32,SE,126,0.0,0.1,98,0.00,CLR,,0.02,WeatherDisplay:10.37,2013-02-11 03:21:00,
2013-02-11 03:26:00,33.0,32.5,29.32,NE,50,2.3,2.3,98,0.00,CLR,,0.02,WeatherDisplay:10.37,2013-02-11 03:26:00,
2013-02-11 03:31:00,33.0,32.5,29.32,ESE,113,2.3,0.0,98,0.00,CLR,,0.02,WeatherDisplay:10.37,2013-02-11 03:31:00,
2013-02-11 03:36:00,33.0,32.5,29.32,East,98,1.1,1.1,98,0.01,RA,,0.03,WeatherDisplay:10.37,2013-02-11 03:36:00,
2013-02-11 03:41:00,33.0,32.5,29.32,NE,43,1.0,1.0,98,0.01,RA,,0.03,WeatherDisplay:10.37,2013-02-11 03:41:00,
2013-02-11 03:46:00,33.0,32.5,29.33,East,84,1.1,0.0,98,0.01,,,0.03,WeatherDisplay:10.37,2013-02-11 03:46:00,
2013-02-11 03:51:00,33.0,32.5,29.33,NNW,332,2.3,2.3,98,0.01,CLR,,0.03,WeatherDisplay:10.37,2013-02-11 03:51:00,
2013-02-11 03:56:00,32.9,32.4,29.33,East,99,0.0,0.2,98,0.01,CLR,,0.03,WeatherDisplay:10.37,2013-02-11 03:56:00,
2013-02-11 04:01:00,32.9,32.4,29.33,WNW,283,0.0,0.0,98,0.01,CLR,,0.03,WeatherDisplay:10.37,2013-02-11 04:01:00,
2013-02-11 04:06:00,32.9,32.4,29.33,West,274,1.1,0.0,98,0.01,CLR,,0.03,WeatherDisplay:10.37,2013-02-11 04:06:00,
2013-02-11 04:11:00,33.0,32.5,29.33,SSW,200,2.3,0.0,98,0.01,CLR,,0.03,WeatherDisplay:10.37,2013-02-11 04:11:00,
2013-02-11 04:16:00,33.0,32.5,29.34,NE,43,0.0,0.2,98,0.01,CLR,,0.03,WeatherDisplay:10.37,2013-02-11 04:16:00,
2013-02-11 04:21:00,33.1,32.6,29.34,ESE,110,1.1,0.0,98,0.01,CLR,,0.03,WeatherDisplay:10.37,2013-02-11 04:21:00,
2013-02-11 04:26:00,33.1,32.6,29.34,East,99,3.5,0.0,98,0.01,CLR,,0.03,WeatherDisplay:10.37,2013-02-11 04:26:00,
2013-02-11 04:31:00,33.1,32.6,29.34,WNW,299,1.1,1.1,98,0.01,CLR,,0.03,WeatherDisplay:10.37,2013-02-11 04:31:00,
2013-02-11 04:36:00,33.1,32.6,29.34,ESE,122,1.1,1.1,98,0.00,CLR,,0.03,WeatherDisplay:10.37,2013-02-11 04:36:00,
2013-02-11 04:41:00,33.0,32.5,29.34,NE,44,1.0,1.0,98,0.01,RA,,0.04,WeatherDisplay:10.37,2013-02-11 04:41:00,
2013-02-11 04:46:00,33.0,32.5,29.35,NNW,329,2.0,2.0,98,0.01,RA,,0.04,WeatherDisplay:10.37,2013-02-11 04:46:00,
2013-02-11 04:51:00,33.0,32.5,29.35,West,270,2.3,0.0,98,0.01,,,0.04,WeatherDisplay:10.37,2013-02-11 04:51:00,
2013-02-11 04:56:00,32.9,32.4,29.35,West,280,0.0,0.1,98,0.01,CLR,,0.04,WeatherDisplay:10.37,2013-02-11 04:56:00,
2013-02-11 05:00:00,32.9,32.4,29.35,ENE,69,2.3,0.0,98,0.01,CLR,,0.04,WeatherDisplay:10.37,2013-02-11 05:00:00,
2013-02-11 05:05:00,32.9,32.4,29.35,WNW,294,1.1,0.0,98,0.01,CLR,,0.04,WeatherDisplay:10.37,2013-02-11 05:05:00,
2013-02-11 05:10:00,32.9,32.4,29.35,East,98,2.3,0.0,98,0.01,CLR,,0.04,WeatherDisplay:10.37,2013-02-11 05:10:00,
2013-02-11 05:15:00,33.1,32.6,29.35,NW,312,1.1,1.1,98,0.01,CLR,,0.04,WeatherDisplay:10.37,2013-02-11 05:15:00,
2013-02-11 05:20:00,33.1,32.6,29.35,WNW,290,1.1,1.1,98,0.01,CLR,,0.04,WeatherDisplay:10.37,2013-02-11 05:20:00,
2013-02-11 05:25:00,33.2,32.7,29.36,West,272,1.1,0.0,98,0.01,CLR,,0.04,WeatherDisplay:10.37,2013-02-11 05:25:00,
2013-02-11 05:30:00,33.3,32.8,29.36,ESE,108,2.0,2.0,98,0.01,CLR,,0.04,WeatherDisplay:10.37,2013-02-11 05:30:00,
2013-02-11 05:35:00,33.3,32.8,29.36,SE,134,0.0,0.2,98,0.01,CLR,,0.04,WeatherDisplay:10.37,2013-02-11 05:35:00,
2013-02-11 05:40:00,33.4,32.9,29.36,SE,126,2.3,0.0,98,0.01,RA,,0.05,WeatherDisplay:10.37,2013-02-11 05:40:00,
2013-02-11 05:45:00,33.4,32.9,29.36,ESE,105,1.1,1.1,98,0.01,RA,,0.05,WeatherDisplay:10.37,2013-02-11 05:45:00,
2013-02-11 05:50:00,33.5,33.0,29.36,WNW,283,1.1,0.0,98,0.01,,,0.05,WeatherDisplay:10.37,2013-02-11 05:50:00,
2013-02-11 05:55:00,33.5,33.0,29.36,West,276,0.0,0.0,98,0.01,CLR,,0.05,WeatherDisplay:10.37,2013-02-11 05:55:00,
2013-02-11 06:00:00,33.5,33.0,29.36,SSE,160,1.1,1.1,98,0.01,CLR,,0.05,WeatherDisplay:10.37,2013-02-11 06:00:00,
2013-02-11 06:05:00,33.5,33.0,29.36,NE,47,1.1,0.0,98,0.01,CLR,,0.05,WeatherDisplay:10.37,2013-02-11 06:05:00,
2013-02-11 06:10:00,33.5,33.0,29.37,West,260,1.1,1.1,98,0.01,CLR,,0.05,WeatherDisplay:10.37,2013-02-11 06:10:00,
2013-02-11 06:15:00,33.6,33.1,29.37,East,94,3.5,3.5,98,0.01,CLR,,0.05,WeatherDisplay:10.37,2013-02-11 06:15:00,
2013-02-11 06:20:00,33.6,33.1,29.37,North,356,1.1,0.0,98,0.01,CLR,,0.05,WeatherDisplay:10.37,2013-02-11 06:20:00,
2013-02-11 06:25:00,33.5,33.0,29.37,NNW,333,1.1,1.1,98,0.02,RA,,0.06,WeatherDisplay:10.37,2013-02-11 06:25:00,
2013-02-11 06:30:00,33.5,33.0,29.37,SW,222,1.1,0.0,98,0.02,RA,,0.06,WeatherDisplay:10.37,2013-02-11 06:30:00,
2013-02-11 06:35:00,33.6,33.1,29.38,ESE,122,3.5,3.5,98,0.02,,,0.06,WeatherDisplay:10.37,2013-02-11 06:35:00,
2013-02-11 06:40:00,33.6,33.1,29.38,SE,134,0.0,0.0,98,0.01,CLR,,0.06,WeatherDisplay:10.37,2013-02-11 06:40:00,
2013-02-11 06:45:00,33.5,33.0,29.38,ESE,122,0.0,0.0,98,0.01,CLR,,0.06,WeatherDisplay:10.37,2013-02-11 06:45:00,
2013-02-11 06:50:00,33.6,33.1,29.39,West,270,0.0,0.0,98,0.01,CLR,,0.06,WeatherDisplay:10.37,2013-02-11 06:50:00,
2013-02-11 06:55:00,33.6,33.1,29.39,SE,145,0.0,0.0,98,0.01,CLR,,0.06,WeatherDisplay:10.37,2013-02-11 06:55:00,
2013-02-11 07:00:00,33.6,33.1,29.39,SSE,163,0.0,0.0,98,0.01,CLR,,0.06,WeatherDisplay:10.37,2013-02-11 07:00:00,
2013-02-11 07:05:00,33.6,33.1,29.39,NW,323,0.0,0.0,98,0.01,CLR,,0.06,WeatherDisplay:10.37,2013-02-11 07:05:00,
2013-02-11 07:10:00,33.5,33.0,29.39,WNW,283,1.1,0.0,98,0.01,CLR,,0.06,WeatherDisplay:10.37,2013-02-11 07:10:00,
2013-02-11 07:15:00,33.5,33.0,29.39,ESE,113,1.1,0.0,98,0.02,RA,,0.06,WeatherDisplay:10.37,2013-02-11 07:15:00,
2013-02-11 07:20:00,33.5,33.0,29.40,WNW,284,1.0,0.0,98,0.02,RA,,0.06,WeatherDisplay:10.37,2013-02-11 07:20:00,
2013-02-11 07:25:00,33.5,33.0,29.40,NE,50,1.1,1.1,98,0.01,,,0.06,WeatherDisplay:10.37,2013-02-11 07:25:00,
2013-02-11 07:30:00,33.5,33.0,29.40,NW,312,0.0,0.6,98,0.01,CLR,,0.06,WeatherDisplay:10.37,2013-02-11 07:30:00,
2013-02-11 07:35:00,33.6,33.1,29.40,SW,226,3.5,3.5,98,0.01,CLR,,0.06,WeatherDisplay:10.37,2013-02-11 07:35:00,
2013-02-11 07:40:00,33.5,33.0,29.41,ENE,75,1.1,1.1,98,0.01,CLR,,0.06,WeatherDisplay:10.37,2013-02-11 07:40:00,
2013-02-11 07:45:00,33.5,32.7,29.41,ESE,123,1.1,1.1,97,0.01,CLR,,0.06,WeatherDisplay:10.37,2013-02-11 07:45:00,
2013-02-11 07:50:00,33.6,32.8,29.41,SE,142,0.0,0.0,97,0.01,CLR,,0.06,WeatherDisplay:10.37,2013-02-11 07:50:00,
2013-02-11 07:55:00,33.5,32.7,29.41,South,184,0.0,0.0,97,0.01,CLR,,0.06,WeatherDisplay:10.37,2013-02-11 07:55:00,
2013-02-11 08:00:00,33.6,32.8,29.42,NW,319,0.0,0.0,97,0.01,CLR,,0.06,WeatherDisplay:10.37,2013-02-11 08:00:00,
2013-02-11 08:05:00,33.6,32.8,29.42,NW,318,0.0,0.0,97,0.02,RA,,0.07,WeatherDisplay:10.37,2013-02-11 08:05:00,
2013-02-11 08:10:00,33.7,33.2,29.42,ESE,118,0.0,0.0,98,0.02,RA,,0.07,WeatherDisplay:10.37,2013-02-11 08:10:00,
2013-02-11 08:15:00,33.7,33.2,29.42,SSE,153,0.0,0.0,98,0.01,CLR,,0.07,WeatherDisplay:10.37,2013-02-11 08:15:00,
2013-02-11 08:20:00,33.7,33.2,29.42,WNW,283,0.0,0.2,98,0.01,CLR,,0.07,WeatherDisplay:10.37,2013-02-11 08:20:00,
2013-02-11 08:25:00,33.8,33.3,29.42,West,266,2.0,2.0,98,0.01,CLR,,0.07,WeatherDisplay:10.37,2013-02-11 08:25:00,
2013-02-11 08:30:00,33.8,33.3,29.42,East,100,1.1,1.1,98,0.01,CLR,,0.07,WeatherDisplay:10.37,2013-02-11 08:30:00,
2013-02-11 08:35:00,33.7,32.9,29.43,WNW,299,1.1,0.0,97,0.01,CLR,,0.07,WeatherDisplay:10.37,2013-02-11 08:35:00,
2013-02-11 08:40:00,33.7,32.9,29.43,West,277,1.1,1.1,97,0.02,RA,,0.08,WeatherDisplay:10.37,2013-02-11 08:40:00,
2013-02-11 08:45:00,33.7,32.9,29.43,SE,125,0.0,0.4,97,0.02,RA,,0.08,WeatherDisplay:10.37,2013-02-11 08:45:00,
2013-02-11 08:50:00,33.6,32.8,29.43,West,264,2.3,2.3,97,0.02,CLR,,0.08,WeatherDisplay:10.37,2013-02-11 08:50:00,
2013-02-11 08:55:00,33.6,32.8,29.43,East,83,0.0,0.0,97,0.02,CLR,,0.08,WeatherDisplay:10.37,2013-02-11 08:55:00,
2013-02-11 09:00:00,33.6,33.1,29.43,West,270,2.3,0.0,98,0.02,CLR,,0.08,WeatherDisplay:10.37,2013-02-11 09:00:00,
2013-02-11 09:05:00,33.6,33.1,29.44,NNE,33,0.0,0.0,98,0.02,RA,,0.09,WeatherDisplay:10.37,2013-02-11 09:05:00,
2013-02-11 09:10:00,33.7,33.2,29.44,WNW,290,1.0,1.0,98,0.02,RA,,0.09,WeatherDisplay:10.37,2013-02-11 09:10:00,
2013-02-11 09:15:00,33.9,33.4,29.44,North,357,1.1,1.1,98,0.02,,,0.09,WeatherDisplay:10.37,2013-02-11 09:15:00,
2013-02-11 09:20:00,33.9,33.4,29.44,WNW,289,0.0,0.0,98,0.02,CLR,,0.09,WeatherDisplay:10.37,2013-02-11 09:20:00,
2013-02-11 09:25:00,33.9,33.4,29.44,West,280,1.1,1.1,98,0.02,RA,,0.09,WeatherDisplay:10.37,2013-02-11 09:25:00,
2013-02-11 09:30:00,34.0,33.5,29.45,ESE,107,0.0,0.1,98,0.02,RA,,0.09,WeatherDisplay:10.37,2013-02-11 09:30:00,
2013-02-11 09:35:00,34.1,33.6,29.45,ESE,110,0.0,0.0,98,0.02,CLR,,0.09,WeatherDisplay:10.37,2013-02-11 09:35:00,
2013-02-11 09:40:00,34.2,33.7,29.45,NNW,330,0.0,0.0,98,0.02,CLR,,0.09,WeatherDisplay:10.37,2013-02-11 09:40:00,
2013-02-11 09:45:00,34.3,33.8,29.45,West,264,2.3,0.0,98,0.02,RA,,0.10,WeatherDisplay:10.37,2013-02-11 09:45:00,
2013-02-11 09:50:00,34.4,33.9,29.45,ESE,108,0.0,0.1,98,0.02,RA,,0.10,WeatherDisplay:10.37,2013-02-11 09:50:00,
2013-02-11 09:55:00,34.5,34.0,29.45,ESE,109,0.0,0.0,98,0.02,CLR,,0.10,WeatherDisplay:10.37,2013-02-11 09:55:00,
2013-02-11 10:00:00,34.7,34.2,29.45,ESE,108,0.0,0.0,98,0.03,RA,,0.11,WeatherDisplay:10.37,2013-02-11 10:00:00,
2013-02-11 10:05:00,34.8,34.3,29.46,WNW,283,2.3,2.3,98,0.02,RA,,0.11,WeatherDisplay:10.37,2013-02-11 10:05:00,
2013-02-11 10:10:00,34.6,34.1,29.46,NNW,329,1.1,0.0,98,0.02,CLR,,0.11,WeatherDisplay:10.37,2013-02-11 10:10:00,
2013-02-11 10:15:00,34.6,34.1,29.46,ESE,105,3.5,0.0,98,0.03,RA,,0.12,WeatherDisplay:10.37,2013-02-11 10:15:00,
2013-02-11 10:20:00,34.6,33.8,29.46,WSW,242,1.1,0.0,97,0.03,RA,,0.12,WeatherDisplay:10.37,2013-02-11 10:20:00,
2013-02-11 10:25:00,34.6,34.1,29.47,NNW,333,1.0,1.0,98,0.02,CLR,,0.12,WeatherDisplay:10.37,2013-02-11 10:25:00,
2013-02-11 10:30:00,34.5,33.7,29.47,NNW,330,0.0,0.0,97,0.03,RA,,0.13,WeatherDisplay:10.37,2013-02-11 10:30:00,
2013-02-11 10:35:00,34.5,33.7,29.47,NW,325,3.5,3.5,97,0.03,RA,,0.13,WeatherDisplay:10.37,2013-02-11 10:35:00,
2013-02-11 10:40:00,34.3,33.5,29.47,NNW,330,0.0,0.0,97,0.03,CLR,,0.13,WeatherDisplay:10.37,2013-02-11 10:40:00,
2013-02-11 10:45:00,34.2,33.4,29.48,SSW,210,0.0,0.0,97,0.03,RA,,0.13,WeatherDisplay:10.37,2013-02-11 10:45:00,
2013-02-11 10:50:00,34.2,33.4,29.48,SSW,197,2.3,0.0,97,0.03,RA,,0.13,WeatherDisplay:10.37,2013-02-11 10:50:00,
2013-02-11 10:55:00,34.2,33.4,29.48,NNE,18,0.0,0.0,97,0.04,RA,,0.14,WeatherDisplay:10.37,2013-02-11 10:55:00,
2013-02-11 11:00:00,34.3,33.8,29.49,ENE,58,0.0,0.0,98,0.03,RA,,0.14,WeatherDisplay:10.37,2013-02-11 11:00:00,
2013-02-11 11:05:00,34.3,33.8,29.49,NNW,345,3.5,3.5,98,0.03,,,0.14,WeatherDisplay:10.37,2013-02-11 11:05:00,
2013-02-11 11:10:00,34.4,33.9,29.49,WNW,302,0.0,0.0,98,0.03,CLR,,0.14,WeatherDisplay:10.37,2013-02-11 11:10:00,
2013-02-11 11:15:00,34.5,34.0,29.49,NNW,335,0.0,0.0,98,0.03,RA,,0.15,WeatherDisplay:10.37,2013-02-11 11:15:00,
2013-02-11 11:20:00,34.5,34.0,29.49,East,85,3.5,3.5,98,0.03,RA,,0.15,WeatherDisplay:10.37,2013-02-11 11:20:00,
2013-02-11 11:25:00,34.5,34.0,29.49,NW,309,0.0,0.0,98,0.03,,,0.15,WeatherDisplay:10.37,2013-02-11 11:25:00,
2013-02-11 11:30:00,34.5,33.7,29.49,NE,47,3.5,3.5,97,0.02,CLR,,0.15,WeatherDisplay:10.37,2013-02-11 11:30:00,
2013-02-11 11:35:00,34.6,33.8,29.50,NNW,339,1.1,0.0,97,0.03,RA,,0.16,WeatherDisplay:10.37,2013-02-11 11:35:00,
2013-02-11 11:40:00,34.7,34.2,29.50,NNE,13,1.1,0.0,98,0.03,RA,,0.16,WeatherDisplay:10.37,2013-02-11 11:40:00,
2013-02-11 11:45:00,34.8,34.0,29.50,NNW,342,2.3,2.3,97,0.02,,,0.16,WeatherDisplay:10.37,2013-02-11 11:45:00,
2013-02-11 11:50:00,34.7,33.9,29.50,NNE,23,1.1,1.1,97,0.02,CLR,,0.16,WeatherDisplay:10.37,2013-02-11 11:50:00,
2013-02-11 11:55:00,34.6,33.8,29.50,West,263,1.1,1.1,97,0.02,RA,,0.17,WeatherDisplay:10.37,2013-02-11 11:55:00,
2013-02-11 12:00:00,34.5,33.7,29.50,NNW,345,2.3,2.3,97,0.02,RA,,0.17,WeatherDisplay:10.37,2013-02-11 12:00:00,
2013-02-11 12:05:00,34.5,33.7,29.50,East,99,3.5,3.5,97,0.02,,,0.17,WeatherDisplay:10.37,2013-02-11 12:05:00,
2013-02-11 12:10:00,34.5,33.7,29.50,ENE,60,3.5,3.5,97,0.03,RA,,0.17,WeatherDisplay:10.37,2013-02-11 12:10:00,
2013-02-11 12:15:00,34.7,33.9,29.51,West,281,1.1,1.1,97,0.02,RA,,0.17,WeatherDisplay:10.37,2013-02-11 12:15:00,
2013-02-11 12:20:00,34.8,34.0,29.51,NE,52,2.3,2.3,97,0.02,,,0.17,WeatherDisplay:10.37,2013-02-11 12:20:00,
2013-02-11 12:25:00,34.8,34.0,29.51,NE,46,3.5,3.5,97,0.03,RA,,0.18,WeatherDisplay:10.37,2013-02-11 12:25:00,
2013-02-11 12:30:00,34.7,33.9,29.51,NW,305,3.5,3.5,97,0.03,RA,,0.18,WeatherDisplay:10.37,2013-02-11 12:30:00,
2013-02-11 12:35:00,34.7,33.9,29.51,NNW,332,3.5,3.5,97,0.03,RA,,0.19,WeatherDisplay:10.37,2013-02-11 12:35:00,
2013-02-11 12:40:00,34.7,33.9,29.51,NNW,342,1.1,1.1,97,0.03,RA,,0.19,WeatherDisplay:10.37,2013-02-11 12:40:00,
2013-02-11 12:45:00,34.7,33.9,29.51,WNW,302,1.1,1.1,97,0.03,,,0.19,WeatherDisplay:10.37,2013-02-11 12:45:00,
2013-02-11 12:50:00,34.7,33.9,29.52,NW,326,2.3,2.3,97,0.04,RA,,0.20,WeatherDisplay:10.37,2013-02-11 12:50:00,
2013-02-11 12:55:00,34.7,33.9,29.52,East,94,1.1,1.1,97,0.03,RA,,0.20,WeatherDisplay:10.37,2013-02-11 12:55:00,
2013-02-11 13:00:00,34.7,33.9,29.52,South,176,0.0,0.0,97,0.03,CLR,,0.20,WeatherDisplay:10.37,2013-02-11 13:00:00,
2013-02-11 13:05:00,34.8,34.0,29.52,NE,36,1.1,1.1,97,0.04,RA,,0.20,WeatherDisplay:10.37,2013-02-11 13:05:00,
2013-02-11 13:10:00,35.0,34.2,29.52,NNW,339,2.0,0.0,97,0.03,RA,,0.20,WeatherDisplay:10.37,2013-02-11 13:10:00,
2013-02-11 13:15:00,35.1,34.3,29.52,WNW,300,1.1,1.1,97,0.03,,,0.20,WeatherDisplay:10.37,2013-02-11 13:15:00,
2013-02-11 13:20:00,35.2,34.4,29.53,NNW,337,3.5,3.5,97,0.03,CLR,,0.20,WeatherDisplay:10.37,2013-02-11 13:20:00,
2013-02-11 13:25:00,35.3,34.5,29.53,NNE,32,3.5,3.5,97,0.02,CLR,,0.20,WeatherDisplay:10.37,2013-02-11 13:25:00,
2013-02-11 13:30:00,35.2,34.2,29.53,NW,322,2.3,2.3,96,0.03,RA,,0.21,WeatherDisplay:10.37,2013-02-11 13:30:00,
2013-02-11 13:35:00,35.1,34.1,29.53,North,8,4.6,4.6,96,0.02,RA,,0.21,WeatherDisplay:10.37,2013-02-11 13:35:00,
2013-02-11 13:40:00,35.1,34.1,29.53,SSW,193,1.0,1.0,96,0.02,CLR,,0.21,WeatherDisplay:10.37,2013-02-11 13:40:00,
2013-02-11 13:45:00,35.1,34.1,29.54,NNW,338,2.0,2.0,96,0.02,CLR,,0.21,WeatherDisplay:10.37,2013-02-11 13:45:00,
2013-02-11 13:50:00,35.1,34.1,29.54,NW,323,1.1,1.1,96,0.02,CLR,,0.21,WeatherDisplay:10.37,2013-02-11 13:50:00,
2013-02-11 13:55:00,35.1,34.1,29.54,NW,305,1.1,1.1,96,0.02,CLR,,0.21,WeatherDisplay:10.37,2013-02-11 13:55:00,
2013-02-11 14:00:00,35.0,34.0,29.54,NW,316,2.3,2.3,96,0.02,CLR,,0.21,WeatherDisplay:10.37,2013-02-11 14:00:00,
2013-02-11 14:05:00,35.0,34.0,29.54,West,271,2.3,2.3,96,0.01,CLR,,0.21,WeatherDisplay:10.37,2013-02-11 14:05:00,
2013-02-11 14:10:00,34.9,33.9,29.54,NNW,345,3.5,3.5,96,0.01,CLR,,0.21,WeatherDisplay:10.37,2013-02-11 14:10:00,
2013-02-11 14:15:00,35.0,34.0,29.55,SSE,149,1.1,1.1,96,0.01,CLR,,0.21,WeatherDisplay:10.37,2013-02-11 14:15:00,
2013-02-11 14:20:00,35.0,33.7,29.55,West,262,1.1,1.1,95,0.01,CLR,,0.21,WeatherDisplay:10.37,2013-02-11 14:20:00,
2013-02-11 14:25:00,35.0,33.7,29.55,NW,321,1.1,1.1,95,0.01,CLR,,0.21,WeatherDisplay:10.37,2013-02-11 14:25:00,
2013-02-11 14:30:00,35.0,33.7,29.55,NNE,13,1.1,1.1,95,0.00,CLR,,0.21,WeatherDisplay:10.37,2013-02-11 14:30:00,
2013-02-11 14:35:00,35.0,33.7,29.55,West,270,3.5,3.5,95,0.00,CLR,,0.21,WeatherDisplay:10.37,2013-02-11 14:35:00,
2013-02-11 14:40:00,35.0,33.7,29.56,NW,309,3.5,3.5,95,0.00,CLR,,0.22,WeatherDisplay:10.37,2013-02-11 14:40:00,
2013-02-11 14:45:00,34.9,33.6,29.56,NW,319,1.1,0.0,95,0.01,RA,,0.22,WeatherDisplay:10.37,2013-02-11 14:45:00,
2013-02-11 14:50:00,35.0,33.7,29.56,North,8,2.0,2.0,95,0.01,RA,,0.22,WeatherDisplay:10.37,2013-02-11 14:50:00,
2013-02-11 14:55:00,34.9,33.6,29.56,East,79,3.5,3.5,95,0.01,CLR,,0.22,WeatherDisplay:10.37,2013-02-11 14:55:00,
2013-02-11 15:00:00,34.9,33.6,29.56,North,351,2.3,2.3,95,0.01,CLR,,0.22,WeatherDisplay:10.37,2013-02-11 15:00:00,
2013-02-11 15:05:00,34.9,33.6,29.57,NNW,344,4.0,4.0,95,0.01,CLR,,0.22,WeatherDisplay:10.37,2013-02-11 15:05:00,
2013-02-11 15:10:00,34.8,33.5,29.57,SE,132,6.9,6.9,95,0.01,CLR,,0.22,WeatherDisplay:10.37,2013-02-11 15:10:00,
2013-02-11 15:15:00,34.9,33.6,29.57,WNW,285,2.3,2.3,95,0.01,CLR,,0.22,WeatherDisplay:10.37,2013-02-11 15:15:00,
2013-02-11 15:20:00,34.9,33.6,29.57,East,98,2.3,2.3,95,0.01,CLR,,0.22,WeatherDisplay:10.37,2013-02-11 15:20:00,
2013-02-11 15:25:00,34.9,33.6,29.57,NNW,345,3.5,3.5,95,0.01,CLR,,0.22,WeatherDisplay:10.37,2013-02-11 15:25:00,
2013-02-11 15:30:00,34.8,33.5,29.57,ENE,75,4.6,4.6,95,0.01,CLR,,0.22,WeatherDisplay:10.37,2013-02-11 15:30:00,
2013-02-11 15:35:00,34.8,33.5,29.58,NNW,348,1.1,1.1,95,0.01,CLR,,0.22,WeatherDisplay:10.37,2013-02-11 15:35:00,
2013-02-11 15:40:00,34.8,33.5,29.58,NW,308,4.0,4.0,95,0.01,CLR,,0.22,WeatherDisplay:10.37,2013-02-11 15:40:00,
2013-02-11 15:45:00,34.8,33.5,29.58,NNW,329,2.0,2.0,95,0.00,CLR,,0.22,WeatherDisplay:10.37,2013-02-11 15:45:00,
2013-02-11 15:50:00,34.8,33.5,29.58,NNE,19,2.3,2.3,95,0.00,CLR,,0.22,WeatherDisplay:10.37,2013-02-11 15:50:00,
2013-02-11 15:55:00,34.7,33.4,29.58,North,351,4.6,4.6,95,0.00,CLR,,0.22,WeatherDisplay:10.37,2013-02-11 15:55:00,
2013-02-11 16:00:00,34.7,33.4,29.58,North,1,3.5,3.5,95,0.00,CLR,,0.22,WeatherDisplay:10.37,2013-02-11 16:00:00,
2013-02-11 16:05:00,34.6,33.6,29.58,NNW,335,4.6,0.0,96,0.00,CLR,,0.22,WeatherDisplay:10.37,2013-02-11 16:05:00,
2013-02-11 16:10:00,34.6,33.6,29.58,East,84,3.5,3.5,96,0.00,CLR,,0.22,WeatherDisplay:10.37,2013-02-11 16:10:00,
2013-02-11 16:15:00,34.5,33.5,29.59,NW,320,4.6,4.6,96,0.00,CLR,,0.22,WeatherDisplay:10.37,2013-02-11 16:15:00,
2013-02-11 16:20:00,34.4,33.4,29.59,NE,43,2.3,2.3,96,0.00,CLR,,0.22,WeatherDisplay:10.37,2013-02-11 16:20:00,
2013-02-11 16:25:00,34.5,33.5,29.59,NNW,330,1.1,1.1,96,0.00,CLR,,0.22,WeatherDisplay:10.37,2013-02-11 16:25:00,
2013-02-11 16:30:00,34.5,33.5,29.59,SSW,205,1.1,1.1,96,0.00,CLR,,0.22,WeatherDisplay:10.37,2013-02-11 16:30:00,
2013-02-11 16:35:00,34.4,33.4,29.60,NE,54,3.5,3.5,96,0.00,CLR,,0.22,WeatherDisplay:10.37,2013-02-11 16:35:00,
2013-02-11 16:40:00,34.4,33.4,29.60,NW,316,2.3,2.3,96,0.00,CLR,,0.22,WeatherDisplay:10.37,2013-02-11 16:40:00,
2013-02-11 16:45:00,34.4,33.4,29.60,NW,314,4.6,4.6,96,0.00,CLR,,0.22,WeatherDisplay:10.37,2013-02-11 16:45:00,
2013-02-11 16:50:00,34.3,33.3,29.60,NNW,328,2.0,2.0,96,0.00,CLR,,0.22,WeatherDisplay:10.37,2013-02-11 16:50:00,
2013-02-11 16:55:00,34.3,33.3,29.60,WNW,285,1.1,1.1,96,0.00,CLR,,0.22,WeatherDisplay:10.37,2013-02-11 16:55:00,
2013-02-11 17:00:00,34.3,33.3,29.61,WNW,287,4.0,4.0,96,0.00,CLR,,0.22,WeatherDisplay:10.37,2013-02-11 17:00:00,
2013-02-11 17:05:00,34.3,33.3,29.61,NW,314,3.5,3.5,96,0.00,CLR,,0.22,WeatherDisplay:10.37,2013-02-11 17:05:00,
2013-02-11 17:10:00,34.3,33.3,29.61,North,351,2.3,2.3,96,0.00,CLR,,0.22,WeatherDisplay:10.37,2013-02-11 17:10:00,
2013-02-11 17:15:00,34.3,33.3,29.61,NW,326,2.3,2.3,96,0.00,CLR,,0.22,WeatherDisplay:10.37,2013-02-11 17:15:00,
2013-02-11 17:20:00,34.3,33.3,29.61,ENE,72,3.0,3.0,96,0.00,CLR,,0.22,WeatherDisplay:10.37,2013-02-11 17:20:00,
2013-02-11 17:25:00,34.3,33.3,29.62,NNE,29,3.5,3.5,96,0.00,CLR,,0.22,WeatherDisplay:10.37,2013-02-11 17:25:00,
2013-02-11 17:30:00,34.3,33.3,29.62,WSW,238,1.1,1.1,96,0.00,CLR,,0.22,WeatherDisplay:10.37,2013-02-11 17:30:00,
2013-02-11 17:35:00,34.2,32.9,29.62,NW,308,3.5,3.5,95,0.00,CLR,,0.22,WeatherDisplay:10.37,2013-02-11 17:35:00,
2013-02-11 17:40:00,34.3,33.0,29.62,WNW,285,2.3,2.3,95,0.00,CLR,,0.22,WeatherDisplay:10.37,2013-02-11 17:40:00,
2013-02-11 17:45:00,34.3,33.0,29.63,NNE,26,3.5,3.5,95,0.00,CLR,,0.22,WeatherDisplay:10.37,2013-02-11 17:45:00,
2013-02-11 17:50:00,34.3,33.0,29.63,NE,48,3.0,3.0,95,0.00,CLR,,0.22,WeatherDisplay:10.37,2013-02-11 17:50:00,
2013-02-11 17:55:00,34.3,33.0,29.63,NW,325,3.5,3.5,95,0.00,CLR,,0.22,WeatherDisplay:10.37,2013-02-11 17:55:00,
2013-02-11 18:00:00,34.3,33.0,29.64,NNW,327,1.1,1.3,95,0.00,CLR,,0.22,WeatherDisplay:10.37,2013-02-11 18:00:00,
2013-02-11 18:05:00,34.3,33.0,29.64,NNW,330,3.5,3.5,95,0.00,CLR,,0.22,WeatherDisplay:10.37,2013-02-11 18:05:00,
2013-02-11 18:10:00,34.3,33.0,29.64,WNW,297,4.6,4.6,95,0.00,CLR,,0.22,WeatherDisplay:10.37,2013-02-11 18:10:00,
2013-02-11 18:15:00,34.3,33.0,29.64,West,274,2.3,2.3,95,0.00,CLR,,0.22,WeatherDisplay:10.37,2013-02-11 18:15:00,
2013-02-11 18:20:00,34.3,33.0,29.65,NE,43,2.3,2.3,95,0.00,CLR,,0.22,WeatherDisplay:10.37,2013-02-11 18:20:00,
2013-02-11 18:25:00,34.3,33.0,29.65,NE,44,4.6,4.6,95,0.00,CLR,,0.22,WeatherDisplay:10.37,2013-02-11 18:25:00,
2013-02-11 18:30:00,34.3,33.0,29.65,North,360,3.5,3.5,95,0.00,CLR,,0.22,WeatherDisplay:10.37,2013-02-11 18:30:00,
2013-02-11 18:35:00,34.3,33.0,29.65,East,86,2.3,2.3,95,0.00,CLR,,0.22,WeatherDisplay:10.37,2013-02-11 18:35:00,
2013-02-11 18:40:00,34.3,33.0,29.66,NNW,338,3.5,3.5,95,0.00,CLR,,0.22,WeatherDisplay:10.37,2013-02-11 18:40:00,
2013-02-11 18:45:00,34.3,33.0,29.66,NNW,347,2.3,2.3,95,0.00,CLR,,0.22,WeatherDisplay:10.37,2013-02-11 18:45:00,
2013-02-11 18:50:00,34.4,33.1,29.66,NNW,331,4.6,4.6,95,0.00,CLR,,0.22,WeatherDisplay:10.37,2013-02-11 18:50:00,
2013-02-11 18:55:00,34.4,33.1,29.66,East,98,2.3,2.3,95,0.00,CLR,,0.22,WeatherDisplay:10.37,2013-02-11 18:55:00,
2013-02-11 19:00:00,34.3,33.0,29.66,NNW,345,3.5,3.5,95,0.00,CLR,,0.22,WeatherDisplay:10.37,2013-02-11 19:00:00,
2013-02-11 19:05:00,34.3,33.0,29.66,NNW,333,2.3,2.3,95,0.00,CLR,,0.22,WeatherDisplay:10.37,2013-02-11 19:05:00,
2013-02-11 19:10:00,34.3,33.0,29.66,ENE,59,2.0,2.0,95,0.00,CLR,,0.22,WeatherDisplay:10.37,2013-02-11 19:10:00,
2013-02-11 19:15:00,34.4,33.1,29.67,NW,324,3.5,3.5,95,0.00,CLR,,0.22,WeatherDisplay:10.37,2013-02-11 19:15:00,
2013-02-11 19:20:00,34.4,33.1,29.67,NNW,329,1.1,1.1,95,0.00,CLR,,0.22,WeatherDisplay:10.37,2013-02-11 19:20:00,
2013-02-11 19:25:00,34.4,33.1,29.67,NNW,330,5.8,5.8,95,0.00,CLR,,0.22,WeatherDisplay:10.37,2013-02-11 19:25:00,
2013-02-11 19:30:00,34.4,33.1,29.67,NW,304,3.5,3.5,95,0.00,CLR,,0.22,WeatherDisplay:10.37,2013-02-11 19:30:00,
2013-02-11 19:35:00,34.4,33.1,29.67,NNW,335,3.5,3.5,95,0.00,CLR,,0.22,WeatherDisplay:10.37,2013-02-11 19:35:00,
2013-02-11 19:40:00,34.4,33.1,29.68,NW,325,2.3,2.3,95,0.00,CLR,,0.22,WeatherDisplay:10.37,2013-02-11 19:40:00,
2013-02-11 19:45:00,34.4,33.1,29.68,NNE,15,0.0,0.2,95,0.00,CLR,,0.22,WeatherDisplay:10.37,2013-02-11 19:45:00,
2013-02-11 19:50:00,34.4,33.1,29.68,West,272,1.1,1.1,95,0.00,CLR,,0.22,WeatherDisplay:10.37,2013-02-11 19:50:00,
2013-02-11 19:55:00,34.3,33.0,29.68,NW,322,2.3,2.3,95,0.00,CLR,,0.22,WeatherDisplay:10.37,2013-02-11 19:55:00,
2013-02-11 20:00:00,34.3,33.0,29.68,East,89,2.3,2.3,95,0.00,CLR,,0.22,WeatherDisplay:10.37,2013-02-11 20:00:00,
2013-02-11 20:05:00,34.3,33.0,29.68,NW,320,3.5,3.5,95,0.00,CLR,,0.22,WeatherDisplay:10.37,2013-02-11 20:05:00,
2013-02-11 20:10:00,34.3,33.0,29.68,NW,322,4.0,4.0,95,0.00,CLR,,0.22,WeatherDisplay:10.37,2013-02-11 20:10:00,
2013-02-11 20:15:00,34.3,33.0,29.68,NE,46,3.5,3.5,95,0.00,CLR,,0.22,WeatherDisplay:10.37,2013-02-11 20:15:00,
2013-02-11 20:20:00,34.3,33.0,29.69,East,101,2.3,2.3,95,0.00,CLR,,0.22,WeatherDisplay:10.37,2013-02-11 20:20:00,
2013-02-11 20:25:00,34.3,33.0,29.69,NNW,339,2.3,2.3,95,0.00,CLR,,0.22,WeatherDisplay:10.37,2013-02-11 20:25:00,
2013-02-11 20:30:00,34.3,33.0,29.69,WNW,302,2.3,2.3,95,0.00,CLR,,0.22,WeatherDisplay:10.37,2013-02-11 20:30:00,
2013-02-11 20:35:00,34.3,33.0,29.69,NNE,24,1.1,1.1,95,0.00,CLR,,0.22,WeatherDisplay:10.37,2013-02-11 20:35:00,
2013-02-11 20:40:00,34.2,33.2,29.69,WNW,293,3.5,3.5,96,0.00,CLR,,0.22,WeatherDisplay:10.37,2013-02-11 20:40:00,
2013-02-11 20:45:00,34.3,33.3,29.70,East,85,2.3,2.3,96,0.00,CLR,,0.22,WeatherDisplay:10.37,2013-02-11 20:45:00,
2013-02-11 20:50:00,34.2,33.2,29.70,NNE,19,2.0,2.0,96,0.00,CLR,,0.22,WeatherDisplay:10.37,2013-02-11 20:50:00,
2013-02-11 20:55:00,34.2,33.2,29.70,NW,324,1.1,1.1,96,0.00,CLR,,0.22,WeatherDisplay:10.37,2013-02-11 20:55:00,
2013-02-11 21:00:00,34.2,33.2,29.70,NE,53,3.5,3.5,96,0.00,CLR,,0.22,WeatherDisplay:10.37,2013-02-11 21:00:00,
2013-02-11 21:05:00,34.2,33.2,29.70,WSW,253,3.5,3.5,96,0.00,CLR,,0.22,WeatherDisplay:10.37,2013-02-11 21:05:00,
2013-02-11 21:10:00,34.2,33.2,29.70,NE,51,1.1,1.1,96,0.00,CLR,,0.22,WeatherDisplay:10.37,2013-02-11 21:10:00,
2013-02-11 21:15:00,34.3,33.3,29.71,North,4,1.0,1.0,96,0.00,CLR,,0.22,WeatherDisplay:10.37,2013-02-11 21:15:00,
2013-02-11 21:20:00,34.3,33.3,29.71,WNW,288,3.5,3.5,96,0.00,CLR,,0.22,WeatherDisplay:10.37,2013-02-11 21:20:00,
2013-02-11 21:25:00,34.3,33.3,29.71,NW,316,3.5,3.5,96,0.00,CLR,,0.22,WeatherDisplay:10.37,2013-02-11 21:25:00,
2013-02-11 21:30:00,34.3,33.3,29.71,ENE,61,3.0,3.0,96,0.00,CLR,,0.22,WeatherDisplay:10.37,2013-02-11 21:30:00,
2013-02-11 21:35:00,34.2,33.2,29.72,NNW,345,3.5,3.5,96,0.00,CLR,,0.22,WeatherDisplay:10.37,2013-02-11 21:35:00,
2013-02-11 21:40:00,34.3,33.3,29.72,NNW,330,2.0,2.0,96,0.00,CLR,,0.22,WeatherDisplay:10.37,2013-02-11 21:40:00,
2013-02-11 21:45:00,34.3,33.3,29.72,NNE,16,3.5,3.5,96,0.00,CLR,,0.22,WeatherDisplay:10.37,2013-02-11 21:45:00,
2013-02-11 21:50:00,34.3,33.3,29.72,ESE,108,2.3,2.3,96,0.00,CLR,,0.22,WeatherDisplay:10.37,2013-02-11 21:50:00,
2013-02-11 21:55:00,34.2,33.2,29.72,NW,324,2.3,2.3,96,0.00,CLR,,0.22,WeatherDisplay:10.37,2013-02-11 21:55:00,
2013-02-11 22:00:00,34.2,33.2,29.72,NW,311,3.0,3.0,96,0.00,CLR,,0.22,WeatherDisplay:10.37,2013-02-11 22:00:00,
2013-02-11 22:05:00,34.3,33.3,29.73,NNW,339,3.5,3.5,96,0.00,CLR,,0.22,WeatherDisplay:10.37,2013-02-11 22:05:00,
2013-02-11 22:10:00,34.3,33.3,29.73,NNW,333,2.3,2.3,96,0.00,CLR,,0.22,WeatherDisplay:10.37,2013-02-11 22:10:00,
2013-02-11 22:15:00,34.3,33.3,29.73,NNW,345,1.1,1.1,96,0.00,CLR,,0.22,WeatherDisplay:10.37,2013-02-11 22:15:00,
2013-02-11 22:20:00,34.3,33.3,29.73,WNW,293,5.8,5.8,96,0.00,CLR,,0.22,WeatherDisplay:10.37,2013-02-11 22:20:00,
2013-02-11 22:25:00,34.3,33.3,29.74,NNW,347,2.3,2.3,96,0.00,CLR,,0.22,WeatherDisplay:10.37,2013-02-11 22:25:00,
2013-02-11 22:30:00,34.3,33.3,29.74,NNW,338,2.3,2.3,96,0.00,CLR,,0.22,WeatherDisplay:10.37,2013-02-11 22:30:00,
2013-02-11 22:35:00,34.3,33.3,29.74,East,82,3.5,3.5,96,0.00,CLR,,0.22,WeatherDisplay:10.37,2013-02-11 22:35:00,
2013-02-11 22:40:00,34.3,33.3,29.74,NNW,329,3.5,3.5,96,0.00,CLR,,0.22,WeatherDisplay:10.37,2013-02-11 22:40:00,
2013-02-11 22:45:00,34.3,33.3,29.74,West,278,2.3,2.3,96,0.00,CLR,,0.22,WeatherDisplay:10.37,2013-02-11 22:45:00,
2013-02-11 22:50:00,34.3,33.3,29.74,NE,51,3.5,3.5,96,0.00,CLR,,0.22,WeatherDisplay:10.37,2013-02-11 22:50:00,
2013-02-11 22:55:00,34.3,33.3,29.75,North,358,2.3,2.3,96,0.00,CLR,,0.22,WeatherDisplay:10.37,2013-02-11 22:55:00,
2013-02-11 23:00:00,34.3,33.3,29.75,NE,51,2.3,2.3,96,0.00,CLR,,0.22,WeatherDisplay:10.37,2013-02-11 23:00:00,
2013-02-11 23:05:00,34.4,33.4,29.75,NE,44,4.6,4.6,96,0.00,CLR,,0.22,WeatherDisplay:10.37,2013-02-11 23:05:00,
2013-02-11 23:10:00,34.4,33.4,29.75,NNW,330,5.8,5.8,96,0.00,CLR,,0.22,WeatherDisplay:10.37,2013-02-11 23:10:00,
2013-02-11 23:15:00,34.5,33.5,29.75,NE,44,1.1,1.1,96,0.00,CLR,,0.22,WeatherDisplay:10.37,2013-02-11 23:15:00,
2013-02-11 23:20:00,34.5,33.5,29.75,WNW,293,5.8,5.8,96,0.00,CLR,,0.22,WeatherDisplay:10.37,2013-02-11 23:20:00,
2013-02-11 23:25:00,34.5,33.5,29.76,SE,136,1.1,1.1,96,0.00,CLR,,0.22,WeatherDisplay:10.37,2013-02-11 23:25:00,
2013-02-11 23:30:00,34.5,33.2,29.76,North,350,1.1,1.1,95,0.00,CLR,,0.22,WeatherDisplay:10.37,2013-02-11 23:30:00,
2013-02-11 23:35:00,34.5,33.2,29.76,ENE,68,3.5,3.5,95,0.00,CLR,,0.22,WeatherDisplay:10.37,2013-02-11 23:35:00,
2013-02-11 23:40:00,34.5,33.2,29.76,NE,48,3.5,3.5,95,0.00,CLR,,0.22,WeatherDisplay:10.37,2013-02-11 23:40:00,
2013-02-11 23:45:00,34.5,33.2,29.77,NNW,342,2.3,2.3,95,0.00,CLR,,0.22,WeatherDisplay:10.37,2013-02-11 23:45:00,
2013-02-11 23:50:00,34.5,33.2,29.77,WNW,291,1.1,0.0,95,0.00,CLR,,0.22,WeatherDisplay:10.37,2013-02-11 23:50:00,
2013-02-11 23:55:00,34.6,33.3,29.77,East,94,2.3,2.3,95,0.00,CLR,,0.22,WeatherDisplay:10.37,2013-02-11 23:55:00,